createdAt,value
2022-11-09T00:01:05.840Z,2.85
2022-11-09T00:03:32.713Z,3.00
2022-11-09T00:06:00.849Z,3.05
2022-11-09T00:08:28.744Z,2.50
2022-11-09T00:10:55.955Z,3.10
2022-11-09T00:13:23.160Z,2.85
2022-11-09T00:15:50.658Z,2.80
2022-11-09T00:18:17.435Z,2.80
2022-11-09T00:20:47.513Z,2.70
2022-11-09T00:23:14.762Z,2.50
2022-11-09T00:25:41.641Z,2.92
2022-11-09T00:28:08.441Z,2.35
2022-11-09T00:30:35.222Z,2.97
2022-11-09T00:33:02.019Z,2.35
2022-11-09T00:35:28.962Z,2.90
2022-11-09T00:37:55.866Z,2.40
2022-11-09T00:40:25.690Z,2.85
2022-11-09T00:42:52.533Z,2.42
2022-11-09T00:45:19.343Z,2.95
2022-11-09T00:47:46.114Z,2.17
2022-11-09T00:50:12.920Z,2.55
2022-11-09T00:52:39.847Z,2.53
2022-11-09T00:55:06.943Z,2.92
2022-11-09T00:57:33.759Z,2.85
2022-11-09T01:00:00.591Z,2.47
2022-11-09T01:02:27.350Z,2.67
2022-11-09T01:04:54.339Z,2.15
2022-11-09T01:07:21.198Z,2.50
2022-11-09T01:09:48.043Z,2.10
2022-11-09T01:12:14.992Z,2.25
2022-11-09T01:14:41.752Z,2.70
2022-11-09T01:17:08.565Z,3.20
2022-11-09T01:19:35.311Z,2.72
2022-11-09T01:22:02.092Z,2.45
2022-11-09T01:24:28.929Z,2.80
2022-11-09T01:26:55.846Z,3.15
2022-11-09T01:29:22.634Z,2.97
2022-11-09T01:31:49.671Z,2.78
2022-11-09T01:34:17.695Z,2.55
2022-11-09T01:36:44.578Z,2.03
2022-11-09T01:39:11.713Z,2.75
2022-11-09T01:41:38.604Z,2.65
2022-11-09T01:44:14.774Z,2.75
2022-11-09T01:46:56.754Z,3.10
2022-11-09T01:49:37.951Z,2.60
2022-11-09T01:52:25.518Z,2.67
2022-11-09T01:55:12.349Z,2.88
2022-11-09T01:57:46.921Z,2.05
2022-11-09T02:00:18.670Z,2.75
2022-11-09T02:02:56.772Z,2.55
2022-11-09T02:05:29.300Z,2.60
2022-11-09T02:07:57.120Z,2.92
2022-11-09T02:10:41.113Z,2.75
2022-11-09T02:13:10.015Z,3.05
2022-11-09T02:15:42.791Z,3.33
2022-11-09T02:18:12.216Z,2.30
2022-11-09T02:21:05.807Z,2.53
2022-11-09T02:23:32.682Z,2.50
2022-11-09T02:26:05.990Z,2.78
2022-11-09T02:28:32.917Z,2.60
2022-11-09T02:31:00.372Z,2.30
2022-11-09T02:33:27.529Z,2.25
2022-11-09T02:35:54.341Z,2.60
2022-11-09T02:38:21.124Z,2.65
2022-11-09T02:40:51.879Z,2.67
2022-11-09T02:43:19.901Z,2.25
2022-11-09T02:45:46.912Z,2.40
2022-11-09T02:48:13.854Z,2.10
2022-11-09T02:50:40.643Z,2.67
2022-11-09T02:53:07.496Z,2.47
2022-11-09T02:55:34.344Z,2.13
2022-11-09T02:58:01.830Z,2.50
2022-11-09T03:00:28.782Z,2.40
2022-11-09T03:02:55.963Z,2.83
2022-11-09T03:05:22.779Z,2.10
2022-11-09T03:07:49.648Z,2.85
2022-11-09T03:10:16.977Z,2.53
2022-11-09T03:12:43.815Z,3.40
2022-11-09T03:15:11.208Z,2.38
2022-11-09T03:17:38.292Z,2.53
2022-11-09T03:20:05.919Z,2.50
2022-11-09T03:22:32.904Z,2.88
2022-11-09T03:24:59.709Z,3.10
2022-11-09T03:27:26.777Z,2.58
2022-11-09T03:29:53.623Z,2.65
2022-11-09T03:32:20.664Z,3.08
2022-11-09T03:34:47.814Z,3.25
2022-11-09T03:37:14.717Z,2.75
2022-11-09T03:39:41.507Z,2.63
2022-11-09T03:42:08.351Z,3.13
2022-11-09T03:44:35.147Z,2.50
2022-11-09T03:47:02.055Z,2.58
2022-11-09T03:49:29.013Z,2.60
2022-11-09T03:51:55.767Z,3.03
2022-11-09T03:54:22.677Z,2.75
2022-11-09T03:56:49.447Z,2.83
2022-11-09T03:59:16.286Z,3.05
2022-11-09T04:01:43.209Z,2.17
2022-11-09T04:04:10.185Z,2.53
2022-11-09T04:06:36.995Z,3.50
2022-11-09T04:09:04.052Z,2.67
2022-11-09T04:11:31.174Z,2.90
2022-11-09T04:13:58.076Z,2.70
2022-11-09T04:16:25.346Z,2.67
2022-11-09T04:18:52.168Z,2.25
2022-11-09T04:21:23.582Z,2.88
2022-11-09T04:23:50.838Z,2.92
2022-11-09T04:26:17.723Z,2.95
2022-11-09T04:28:44.503Z,2.58
2022-11-09T04:31:11.350Z,2.75
2022-11-09T04:33:38.191Z,2.95
2022-11-09T04:36:05.585Z,2.60
2022-11-09T04:38:32.533Z,2.63
2022-11-09T04:41:05.899Z,2.33
2022-11-09T04:43:32.842Z,1.92
2022-11-09T04:46:03.563Z,2.20
2022-11-09T04:48:34.291Z,2.88
2022-11-09T04:51:13.258Z,2.38
2022-11-09T04:53:40.522Z,2.28
2022-11-09T04:56:08.290Z,1.63
2022-11-09T04:58:35.404Z,1.98
2022-11-09T05:01:07.505Z,1.80
2022-11-09T05:03:34.984Z,2.00
2022-11-09T05:06:22.160Z,2.42
2022-11-09T05:08:50.018Z,2.00
2022-11-09T05:11:17.192Z,1.60
2022-11-09T05:13:44.320Z,2.08
2022-11-09T05:16:11.303Z,1.67
2022-11-09T05:18:38.095Z,1.65
2022-11-09T05:21:05.229Z,2.30
2022-11-09T05:23:50.684Z,2.15
2022-11-09T05:28:45.033Z,2.20
2022-11-09T05:31:11.898Z,1.90
2022-11-09T05:33:38.770Z,2.20
2022-11-09T05:36:06.139Z,2.38
2022-11-09T05:38:33.350Z,2.47
2022-11-09T05:41:00.225Z,1.95
2022-11-09T05:43:27.227Z,2.10
2022-11-09T05:45:54.299Z,2.17
2022-11-09T05:48:21.224Z,2.22
2022-11-09T05:50:48.066Z,2.33
2022-11-09T05:53:14.860Z,2.53
2022-11-09T05:55:41.659Z,2.10
2022-11-09T05:58:08.870Z,2.03
2022-11-09T06:00:36.234Z,1.98
2022-11-09T06:03:09.179Z,2.50
2022-11-09T06:05:38.879Z,1.50
2022-11-09T06:08:14.099Z,2.10
2022-11-09T06:10:42.947Z,1.80
2022-11-09T06:13:10.262Z,2.45
2022-11-09T06:15:37.482Z,1.67
2022-11-09T06:18:04.669Z,1.60
2022-11-09T06:20:33.578Z,1.50
2022-11-09T06:23:03.837Z,1.30
2022-11-09T06:25:33.207Z,1.65
2022-11-09T06:28:00.770Z,1.55
2022-11-09T06:30:27.638Z,1.58
2022-11-09T06:33:02.350Z,1.48
2022-11-09T06:35:30.053Z,1.38
2022-11-09T06:38:00.940Z,1.42
2022-11-09T06:40:28.784Z,1.42
2022-11-09T06:43:00.023Z,1.13
2022-11-09T06:45:28.822Z,1.33
2022-11-09T06:48:01.765Z,1.23
2022-11-09T06:50:32.230Z,1.55
2022-11-09T06:53:05.727Z,1.25
2022-11-09T06:55:35.096Z,1.25
2022-11-09T06:58:10.893Z,1.30
2022-11-09T07:00:38.157Z,1.48
2022-11-09T07:03:05.191Z,1.30
2022-11-09T07:05:32.335Z,1.10
2022-11-09T07:07:59.170Z,1.25
2022-11-09T07:10:25.976Z,1.30
2022-11-09T07:12:52.749Z,1.15
2022-11-09T07:15:19.615Z,1.00
2022-11-09T07:17:46.572Z,0.90
2022-11-09T07:20:14.948Z,0.70
2022-11-09T07:22:42.277Z,1.20
2022-11-09T07:25:11.983Z,1.20
2022-11-09T07:27:39.107Z,1.10
2022-11-09T07:30:07.022Z,1.45
2022-11-09T07:33:02.568Z,1.05
2022-11-09T07:35:23.114Z,1.20
2022-11-09T07:37:49.890Z,1.10
2022-11-09T07:40:16.740Z,1.00
2022-11-09T07:42:43.524Z,0.93
2022-11-09T07:45:10.612Z,0.85
2022-11-09T07:47:37.831Z,0.73
2022-11-09T07:50:05.259Z,0.63
2022-11-09T07:52:32.059Z,0.90
2022-11-09T07:54:59.179Z,1.00
2022-11-09T07:57:25.920Z,0.90
2022-11-09T07:59:53.841Z,0.77
2022-11-09T08:02:20.658Z,0.90
2022-11-09T08:04:47.548Z,0.75
2022-11-09T08:07:15.125Z,0.70
2022-11-09T08:09:41.947Z,0.93
2022-11-09T08:12:08.725Z,0.80
2022-11-09T08:14:35.490Z,0.82
2022-11-09T08:17:02.246Z,1.08
2022-11-09T08:19:29.031Z,0.90
2022-11-09T08:21:58.095Z,1.10
2022-11-09T08:24:24.887Z,0.85
2022-11-09T08:26:51.673Z,0.90
2022-11-09T08:29:18.472Z,0.68
2022-11-09T08:31:45.243Z,0.77
2022-11-09T08:34:14.346Z,1.00
2022-11-09T08:36:41.529Z,0.60
2022-11-09T08:39:09.660Z,0.60
2022-11-09T08:41:36.942Z,0.60
2022-11-09T08:44:03.974Z,1.17
2022-11-09T08:46:30.815Z,0.60
2022-11-09T08:48:58.064Z,1.00
2022-11-09T08:51:24.839Z,1.00
2022-11-09T08:53:51.791Z,0.77
2022-11-09T08:56:19.407Z,1.02
2022-11-09T08:58:46.796Z,0.90
2022-11-09T09:01:17.213Z,0.70
2022-11-09T09:03:44.416Z,1.00
2022-11-09T09:06:11.544Z,1.00
2022-11-09T09:08:38.462Z,0.75
2022-11-09T09:11:06.266Z,1.10
2022-11-09T09:13:33.431Z,1.10
2022-11-09T09:16:13.883Z,0.98
2022-11-09T09:18:40.745Z,1.10
2022-11-09T09:21:09.682Z,1.10
2022-11-09T09:23:36.795Z,0.75
2022-11-09T09:26:04.423Z,0.70
2022-11-09T09:28:31.544Z,1.00
2022-11-09T09:31:00.249Z,0.65
2022-11-09T09:33:27.637Z,0.80
2022-11-09T09:35:59.133Z,0.90
2022-11-09T09:38:27.140Z,0.75
2022-11-09T09:41:03.651Z,0.88
2022-11-09T09:43:43.916Z,0.80
2022-11-09T09:46:27.173Z,0.93
2022-11-09T09:49:18.851Z,1.10
2022-11-09T09:51:54.622Z,0.80
2022-11-09T09:54:27.152Z,0.82
2022-11-09T09:57:00.119Z,1.00
2022-11-09T09:59:40.660Z,0.90
2022-11-09T10:02:30.639Z,1.00
2022-11-09T10:05:08.197Z,0.85
2022-11-09T10:07:37.716Z,0.75
2022-11-09T10:10:18.989Z,0.80
2022-11-09T10:13:13.111Z,1.00
2022-11-09T10:15:55.870Z,0.90
2022-11-09T10:18:36.736Z,0.73
2022-11-09T10:21:40.933Z,1.00
2022-11-09T10:24:28.469Z,1.20
2022-11-09T10:26:58.092Z,0.95
2022-11-09T10:29:45.423Z,0.90
2022-11-09T10:32:23.992Z,0.90
2022-11-09T10:34:56.525Z,1.10
2022-11-09T10:37:39.087Z,1.27
2022-11-09T10:40:09.214Z,0.90
2022-11-09T10:42:36.255Z,1.00
2022-11-09T10:45:35.850Z,0.98
2022-11-09T10:48:04.254Z,1.17
2022-11-09T10:50:38.947Z,1.63
2022-11-09T10:53:25.015Z,1.35
2022-11-09T10:56:21.149Z,1.70
2022-11-09T10:58:51.976Z,1.63
2022-11-09T11:01:24.354Z,1.67
2022-11-09T11:03:54.195Z,1.20
2022-11-09T11:06:20.899Z,1.63
2022-11-09T11:08:57.703Z,1.63
2022-11-09T11:11:37.296Z,1.80
2022-11-09T11:14:34.078Z,1.10
2022-11-09T11:17:01.432Z,1.40
2022-11-09T11:19:40.484Z,1.27
2022-11-09T11:22:19.332Z,1.48
2022-11-09T11:24:57.095Z,1.40
2022-11-09T11:27:29.177Z,1.60
2022-11-09T11:30:09.000Z,1.35
2022-11-09T11:38:35.058Z,1.50
2022-11-09T11:41:38.573Z,1.73
2022-11-09T11:44:14.468Z,1.65
2022-11-09T11:47:01.131Z,2.08
2022-11-09T11:49:59.629Z,1.80
2022-11-09T11:53:00.175Z,1.65
2022-11-09T11:56:08.064Z,1.35
2022-11-09T11:58:55.195Z,1.00
2022-11-09T12:01:47.900Z,1.73
2022-11-09T12:04:36.355Z,1.40
2022-11-09T12:07:17.716Z,1.48
2022-11-09T12:10:12.032Z,1.85
2022-11-09T12:13:03.868Z,1.00
2022-11-09T12:16:08.038Z,1.23
2022-11-09T12:18:53.817Z,2.13
2022-11-09T12:21:43.435Z,2.63
2022-11-09T12:24:32.137Z,2.53
2022-11-09T12:30:00.314Z,4.25
2022-11-09T12:32:39.113Z,3.45
2022-11-09T12:35:44.395Z,2.55
2022-11-09T12:38:18.665Z,1.83
2022-11-09T12:41:12.760Z,2.20
2022-11-09T12:43:53.812Z,2.00
2022-11-09T12:46:26.741Z,1.45
2022-11-09T12:48:56.073Z,1.73
2022-11-09T12:51:25.990Z,1.90
2022-11-09T12:53:53.039Z,2.03
2022-11-09T12:56:33.557Z,1.90
2022-11-09T12:59:34.924Z,2.25
2022-11-09T13:02:03.740Z,2.00
2022-11-09T13:04:31.212Z,2.10
2022-11-09T13:07:04.560Z,1.85
2022-11-09T13:09:44.063Z,1.70
2022-11-09T13:12:42.820Z,1.80
2022-11-09T13:15:31.398Z,1.00
2022-11-09T13:18:33.652Z,1.27
2022-11-09T13:21:23.983Z,1.23
2022-11-09T13:24:02.802Z,1.80
2022-11-09T13:26:33.589Z,1.65
2022-11-09T13:29:16.198Z,1.02
2022-11-09T13:32:02.653Z,1.20
2022-11-09T13:34:39.676Z,0.85
2022-11-09T13:37:34.608Z,1.73
2022-11-09T13:40:20.804Z,1.23
2022-11-09T13:43:14.616Z,1.10
2022-11-09T13:46:12.080Z,1.40
2022-11-09T13:48:44.497Z,1.17
2022-11-09T13:51:35.843Z,1.38
2022-11-09T13:54:33.803Z,1.42
2022-11-09T13:57:06.569Z,1.13
2022-11-09T13:59:41.912Z,1.15
2022-11-09T14:02:38.164Z,1.17
2022-11-09T14:05:05.548Z,1.10
2022-11-09T14:07:35.479Z,1.30
2022-11-09T14:10:20.827Z,1.10
2022-11-09T14:13:17.000Z,1.40
2022-11-09T14:16:25.504Z,1.23
2022-11-09T14:19:17.367Z,1.30
2022-11-09T14:21:51.644Z,1.35
2022-11-09T14:24:32.896Z,0.93
2022-11-09T14:27:08.888Z,1.17
2022-11-09T14:29:57.734Z,1.10
2022-11-09T14:32:36.875Z,1.13
2022-11-09T14:35:35.289Z,1.00
2022-11-09T14:38:18.278Z,1.40
2022-11-09T14:40:47.791Z,0.98
2022-11-09T14:43:29.276Z,1.10
2022-11-09T14:46:01.366Z,1.42
2022-11-09T14:48:30.221Z,1.20
2022-11-09T14:51:01.953Z,1.52
2022-11-09T14:53:33.843Z,1.30
2022-11-09T14:56:05.366Z,1.42
2022-11-09T14:58:36.567Z,1.20
2022-11-09T15:01:27.279Z,1.63
2022-11-09T15:04:17.094Z,1.42
2022-11-09T15:06:56.923Z,1.23
2022-11-09T15:09:34.203Z,1.02
2022-11-09T15:12:02.496Z,1.20
2022-11-09T15:14:33.441Z,1.50
2022-11-09T15:17:12.456Z,1.30
2022-11-09T15:19:49.968Z,1.70
2022-11-09T15:22:50.976Z,1.42
2022-11-09T15:25:35.515Z,1.35
2022-11-09T15:28:25.690Z,1.50
2022-11-09T15:30:55.692Z,1.60
2022-11-09T15:33:48.405Z,1.58
2022-11-09T15:36:35.638Z,2.25
2022-11-09T15:39:13.160Z,2.30
2022-11-09T15:41:40.224Z,1.90
2022-11-09T15:44:08.082Z,2.42
2022-11-09T15:46:44.125Z,2.50
2022-11-09T15:49:28.447Z,2.38
2022-11-09T15:51:56.375Z,1.92
2022-11-09T15:54:24.549Z,2.33
2022-11-09T15:56:52.114Z,2.50
2022-11-09T15:59:26.589Z,2.10
2022-11-09T16:01:53.547Z,1.77
2022-11-09T16:04:20.389Z,1.38
2022-11-09T16:06:47.326Z,1.92
2022-11-09T16:09:15.697Z,1.75
2022-11-09T16:11:42.526Z,1.80
2022-11-09T16:14:09.516Z,2.28
2022-11-09T16:16:36.452Z,2.30
2022-11-09T16:19:03.231Z,2.17
2022-11-09T16:21:30.032Z,2.10
2022-11-09T16:23:58.654Z,1.80
2022-11-09T16:26:26.362Z,2.40
2022-11-09T16:28:54.891Z,2.03
2022-11-09T16:31:41.177Z,1.90
2022-11-09T16:34:08.511Z,1.98
2022-11-09T16:36:38.957Z,1.88
2022-11-09T16:39:15.023Z,3.35
2022-11-09T16:41:42.948Z,5.60
2022-11-09T16:44:10.090Z,4.43
2022-11-09T16:46:36.908Z,4.00
2022-11-09T16:49:04.088Z,5.30
2022-11-09T16:51:31.189Z,5.55
2022-11-09T16:53:58.182Z,4.45
2022-11-09T16:56:25.073Z,2.80
2022-11-09T16:58:52.295Z,2.40
2022-11-09T17:01:23.218Z,2.10
2022-11-09T17:03:50.762Z,2.10
2022-11-09T17:06:17.855Z,1.95
2022-11-09T17:08:44.721Z,5.63
2022-11-09T17:11:15.042Z,4.25
2022-11-09T17:13:42.599Z,3.35
2022-11-09T17:16:13.472Z,4.15
2022-11-09T17:18:42.290Z,4.95
2022-11-09T17:21:11.803Z,4.20
2022-11-09T17:23:39.312Z,3.45
2022-11-09T17:26:08.775Z,2.88
2022-11-09T17:28:41.543Z,2.92
2022-11-09T17:31:19.352Z,2.33
2022-11-09T17:33:46.301Z,2.55
2022-11-09T17:36:17.010Z,2.35
2022-11-09T17:38:47.186Z,3.33
2022-11-09T17:41:19.896Z,4.97
2022-11-09T17:43:47.318Z,5.50
2022-11-09T17:46:22.230Z,3.83
2022-11-09T17:48:51.145Z,3.38
2022-11-09T17:51:20.321Z,2.85
2022-11-09T17:53:47.484Z,4.20
2022-11-09T17:56:15.102Z,4.47
2022-11-09T17:58:44.461Z,5.63
2022-11-09T18:01:16.457Z,5.53
2022-11-09T18:03:43.791Z,3.53
2022-11-09T18:06:18.408Z,3.38
2022-11-09T18:08:58.306Z,3.05
2022-11-09T18:11:34.129Z,3.50
2022-11-09T18:14:01.212Z,3.20
2022-11-09T18:16:28.361Z,3.05
2022-11-09T18:19:03.146Z,2.60
2022-11-09T18:21:30.668Z,2.70
2022-11-09T18:23:57.529Z,3.17
2022-11-09T18:26:24.606Z,3.05
2022-11-09T18:28:51.430Z,3.00
2022-11-09T18:31:18.428Z,2.85
2022-11-09T18:33:45.256Z,2.50
2022-11-09T18:36:16.441Z,2.67
2022-11-09T18:38:44.617Z,3.10
2022-11-09T18:41:14.773Z,3.65
2022-11-09T18:43:42.037Z,3.45
2022-11-09T18:46:12.984Z,3.20
2022-11-09T18:48:40.209Z,3.92
2022-11-09T18:51:09.003Z,3.15
2022-11-09T18:53:39.888Z,2.80
2022-11-09T18:56:18.292Z,3.55
2022-11-09T18:58:46.604Z,3.05
2022-11-09T19:01:14.465Z,3.13
2022-11-09T19:03:41.792Z,2.60
2022-11-09T19:06:13.228Z,2.83
2022-11-09T19:08:58.927Z,2.60
2022-11-09T19:11:26.259Z,2.50
2022-11-09T19:13:54.569Z,2.42
2022-11-09T19:16:22.475Z,2.60
2022-11-09T19:18:50.196Z,2.35
2022-11-09T19:21:32.915Z,3.13
2022-11-09T19:24:00.167Z,2.70
2022-11-09T19:26:26.944Z,2.40
2022-11-09T19:28:53.751Z,2.60
2022-11-09T19:31:23.503Z,2.50
2022-11-09T19:33:51.599Z,2.45
2022-11-09T19:36:35.079Z,3.05
2022-11-09T19:39:02.792Z,2.75
2022-11-09T19:41:29.804Z,2.50
2022-11-09T19:43:58.971Z,2.25
2022-11-09T19:46:27.990Z,2.35
2022-11-09T19:48:54.971Z,2.45
2022-11-09T19:51:22.538Z,3.08
2022-11-09T19:53:58.791Z,2.78
2022-11-09T19:56:28.359Z,2.25
2022-11-09T19:58:59.218Z,2.25
2022-11-09T20:01:26.850Z,2.60
2022-11-09T20:03:56.341Z,2.55
2022-11-09T20:06:24.646Z,2.17
2022-11-09T20:08:52.358Z,2.60
2022-11-09T20:11:40.857Z,3.03
2022-11-09T20:14:09.831Z,2.85
2022-11-09T20:16:37.950Z,2.33
2022-11-09T20:19:09.465Z,2.92
2022-11-09T20:21:38.040Z,2.58
2022-11-09T20:24:05.241Z,2.83
2022-11-09T20:26:33.173Z,2.67
2022-11-09T20:28:59.986Z,2.75
2022-11-09T20:31:26.972Z,3.22
2022-11-09T20:33:53.743Z,3.17
2022-11-09T20:36:20.578Z,3.08
2022-11-09T20:38:48.798Z,2.80
2022-11-09T20:41:15.987Z,2.40
2022-11-09T20:43:43.271Z,2.80
2022-11-09T20:46:17.692Z,2.85
2022-11-09T20:48:54.534Z,2.72
2022-11-09T20:51:24.195Z,2.90
2022-11-09T20:53:51.348Z,3.22
2022-11-09T20:56:19.955Z,3.65
2022-11-09T20:58:47.826Z,2.88
2022-11-09T21:01:21.752Z,3.15
2022-11-09T21:03:51.138Z,3.03
2022-11-09T21:06:19.311Z,2.90
2022-11-09T21:08:51.473Z,2.55
2022-11-09T21:11:19.441Z,3.58
2022-11-09T21:13:52.176Z,3.55
2022-11-09T21:16:21.277Z,3.45
2022-11-09T21:18:48.609Z,2.97
2022-11-09T21:21:20.338Z,3.75
2022-11-09T21:24:06.405Z,3.55
2022-11-09T21:26:52.380Z,3.53
2022-11-09T21:29:41.811Z,3.10
2022-11-09T21:32:11.233Z,3.20
2022-11-09T21:34:38.505Z,3.17
2022-11-09T21:37:06.155Z,3.53
2022-11-09T21:39:33.745Z,2.80
2022-11-09T21:42:02.070Z,4.18
2022-11-09T21:44:31.167Z,2.92
2022-11-09T21:46:59.345Z,2.53
2022-11-09T21:49:26.308Z,3.45
2022-11-09T21:51:54.217Z,3.30
2022-11-09T21:54:22.212Z,3.58
2022-11-09T21:56:49.870Z,4.93
2022-11-09T21:59:17.323Z,8.38
2022-11-09T22:01:44.981Z,4.68
2022-11-09T22:04:12.389Z,3.95
2022-11-09T22:06:41.494Z,3.10
2022-11-09T22:09:14.972Z,3.75
2022-11-09T22:12:00.734Z,4.00
2022-11-09T22:14:46.696Z,3.75
2022-11-09T22:17:13.913Z,3.78
2022-11-09T22:19:59.776Z,3.65
2022-11-09T22:22:31.519Z,3.15
2022-11-09T22:24:59.084Z,3.95
2022-11-09T22:27:26.389Z,3.45
2022-11-09T22:29:53.278Z,3.75
2022-11-09T22:32:21.388Z,3.78
2022-11-09T22:34:48.610Z,3.15
2022-11-09T22:37:15.927Z,3.67
2022-11-09T22:39:47.064Z,8.13
2022-11-09T22:42:14.580Z,31.83
2022-11-09T22:44:41.351Z,13.15
2022-11-09T22:47:08.213Z,8.82
2022-11-09T22:49:37.027Z,5.18
2022-11-09T22:52:05.125Z,3.90
2022-11-09T22:54:32.138Z,3.67
2022-11-09T22:56:59.004Z,4.10
2022-11-09T22:59:25.841Z,3.80
2022-11-09T23:01:52.744Z,4.05
2022-11-09T23:04:20.062Z,3.97
2022-11-09T23:06:46.947Z,5.00
2022-11-09T23:09:13.881Z,3.85
2022-11-09T23:11:40.833Z,4.10
2022-11-09T23:14:07.601Z,4.00
2022-11-09T23:16:34.643Z,4.50
2022-11-09T23:19:01.454Z,4.60
2022-11-09T23:21:37.445Z,4.35
2022-11-09T23:24:07.473Z,3.65
2022-11-09T23:26:35.151Z,4.45
2022-11-09T23:29:01.992Z,3.95
2022-11-09T23:31:28.889Z,4.50
2022-11-09T23:33:58.199Z,4.18
2022-11-09T23:36:26.676Z,3.58
2022-11-09T23:38:54.064Z,3.88
2022-11-09T23:41:21.548Z,3.53
2022-11-09T23:43:49.840Z,4.00
2022-11-09T23:46:18.013Z,3.80
2022-11-09T23:48:45.391Z,2.50
2022-11-09T23:51:12.523Z,3.10
2022-11-09T23:53:39.561Z,3.33
2022-11-09T23:56:10.071Z,2.88
2022-11-09T23:58:37.528Z,2.85
